Weather History for Warrensburg, MO

Change the Weather History Date:

Wednesday, March 27, 2013

  Actual Average (KSZL) Record (KSZL)
Temperature  
Mean Temperature 37 °F -  
Max Temperature 48 °F 58 °F 79 °F (2012)
Min Temperature 26 °F 37 °F 19 °F (2001)
Degree Days  
Heating Degree Days 28    
Moisture  
Dew Point 28 °F    
Average Humidity 73    
Maximum Humidity 93    
Minimum Humidity 53    
Precipitation  
Precipitation 0.00 in - - ()
Sea Level Pressure  
Sea Level Pressure 30.29 in    
Wind  
Wind Speed 4 mph (East)    
Max Wind Speed 14 mph    
Max Gust Speed -    
Visibility 10 miles    
Events      
Averages and records for this station are not official NWS values.
T = Trace of Precipitation, MM = Missing Value Source: NWS Daily Summary

Daily Weather History Graph

Daily Weather History Graph

Search for Another Location

Airport:

Trip Planner

Search our weather history database for the weather conditions in past years. The results will help you decide how hot, cold, wet, or windy it might be!

Date:

Astronomy

Mar. 27, 2013 Rise Set
Actual Time 7:07 AM CDT 7:34 PM CDT
Civil Twilight 6:40 AM CDT 8:00 PM CDT
Nautical Twilight 6:09 AM CDT 8:32 PM CDT
Astronomical Twilight 5:37 AM CDT 9:04 PM CDT
Moon 8:17 PM CDT (3/27) 6:59 AM CDT (3/27)
Length of Visible Light 13h 20m
Length of Day
12h 26m
Full, 100% of the Moon is Illuminated
Mar 27
Full
Apr 2
Last Quarter
Apr 10
New
Apr 18
First Quarter
Apr 25
Full

Hourly Weather History & Observations

Time (CDT) Temp. Windchill Dew Point Humidity Pressure Visibility Wind Dir Wind Speed Gust Speed Precip Events Conditions
12:15 AM 26.6 °F 21.2 °F 23.0 °F 86% 30.34 in 10.0 mi ESE 4.6 mph - N/A   Clear
12:35 AM 26.6 °F 21.2 °F 23.0 °F 86% 30.33 in 10.0 mi ESE 4.6 mph - N/A   Clear
12:55 AM 26.6 °F 21.2 °F 23.0 °F 86% 30.32 in 10.0 mi ESE 4.6 mph - N/A   Clear
1:15 AM 26.6 °F - 23.0 °F 86% 30.32 in 10.0 mi Calm Calm - N/A   Clear
1:35 AM 26.6 °F - 23.0 °F 86% 30.33 in 10.0 mi Calm Calm - N/A   Clear
1:55 AM 26.6 °F - 23.0 °F 86% 30.32 in 10.0 mi Calm Calm - N/A   Clear
2:15 AM 26.6 °F - 23.0 °F 86% 30.33 in 10.0 mi Calm Calm - N/A   Clear
2:35 AM 26.6 °F - 24.8 °F 93% 30.33 in 10.0 mi Calm Calm - N/A   Clear
2:55 AM 26.6 °F - 23.0 °F 86% 30.32 in 10.0 mi Calm Calm - N/A   Clear
3:15 AM 26.6 °F 22.6 °F 23.0 °F 86% 30.31 in 10.0 mi NNE 3.5 mph - N/A   Clear
3:35 AM 26.6 °F - 23.0 °F 86% 30.32 in 10.0 mi Calm Calm - N/A   Clear
3:55 AM 26.6 °F 22.6 °F 23.0 °F 86% 30.31 in 10.0 mi East 3.5 mph - N/A   Clear
4:15 AM 26.6 °F - 23.0 °F 86% 30.31 in 10.0 mi Calm Calm - N/A   Clear
4:35 AM 26.6 °F - 23.0 °F 86% 30.31 in 10.0 mi Calm Calm - N/A   Scattered Clouds
4:55 AM 26.6 °F 22.6 °F 23.0 °F 86% 30.31 in 10.0 mi ENE 3.5 mph - N/A   Overcast
5:15 AM 26.6 °F 20.0 °F 23.0 °F 86% 30.30 in 10.0 mi NE 5.8 mph - N/A   Overcast
5:35 AM 26.6 °F 22.6 °F 23.0 °F 86% 30.30 in 10.0 mi ENE 3.5 mph - N/A   Overcast
5:55 AM 26.6 °F 22.6 °F 23.0 °F 86% 30.30 in 10.0 mi ESE 3.5 mph - N/A   Mostly Cloudy
6:15 AM 28.4 °F 24.6 °F 23.0 °F 80% 30.32 in 10.0 mi ESE 3.5 mph - N/A   Scattered Clouds
6:35 AM 28.4 °F - 23.0 °F 80% 30.32 in 10.0 mi Calm Calm - N/A   Mostly Cloudy
6:55 AM 28.4 °F 24.6 °F 23.0 °F 80% 30.32 in 10.0 mi SE 3.5 mph - N/A   Overcast
7:15 AM 28.4 °F - 23.0 °F 80% 30.33 in 10.0 mi Calm Calm - N/A   Overcast
7:35 AM 30.2 °F 26.7 °F 24.8 °F 80% 30.33 in 10.0 mi SE 3.5 mph - N/A   Overcast
7:55 AM 30.2 °F - 24.8 °F 80% 30.33 in 10.0 mi Calm Calm - N/A   Overcast
8:15 AM 32.0 °F - 24.8 °F 75% 30.33 in 10.0 mi Calm Calm - N/A   Overcast
8:35 AM 32.0 °F 28.7 °F 26.6 °F 80% 30.34 in 10.0 mi SSE 3.5 mph - N/A   Overcast
8:55 AM 32.0 °F 27.5 °F 26.6 °F 80% 30.34 in 10.0 mi SE 4.6 mph - N/A   Overcast
9:15 AM 32.0 °F 26.4 °F 26.6 °F 80% 30.33 in 10.0 mi SE 5.8 mph - N/A   Overcast
9:55 AM 33.8 °F 27.7 °F 26.6 °F 75% 30.32 in 10.0 mi ESE 6.9 mph - N/A   Overcast
10:15 AM 35.6 °F 29.2 °F 26.6 °F 70% 30.32 in 10.0 mi SE 8.1 mph - N/A   Overcast
10:35 AM 35.6 °F 30.7 °F 28.4 °F 75% 30.32 in 10.0 mi ESE 5.8 mph - N/A   Overcast
10:55 AM 37.4 °F 32.8 °F 28.4 °F 70% 30.32 in 10.0 mi ESE 5.8 mph - N/A   Overcast
11:15 AM 37.4 °F 34.9 °F 26.6 °F 65% 30.33 in 10.0 mi ENE 3.5 mph - N/A   Overcast
11:35 AM 37.4 °F 34.9 °F 28.4 °F 70% 30.33 in 10.0 mi NE 3.5 mph - N/A   Overcast
11:55 AM 39.2 °F 33.6 °F 28.4 °F 65% 30.32 in 10.0 mi ENE 8.1 mph - N/A   Overcast
12:15 PM 37.4 °F 32.8 °F 28.4 °F 70% 30.33 in 10.0 mi East 5.8 mph - N/A   Overcast
12:35 PM 39.2 °F 34.2 °F 28.4 °F 65% 30.32 in 10.0 mi East 6.9 mph - N/A   Overcast
12:55 PM 39.2 °F 34.2 °F 28.4 °F 65% 30.32 in 10.0 mi East 6.9 mph - N/A   Overcast
1:15 PM 41.0 °F 35.8 °F 28.4 °F 61% 30.31 in 10.0 mi East 8.1 mph - N/A   Overcast
1:35 PM 41.0 °F 35.8 °F 30.2 °F 65% 30.30 in 10.0 mi East 8.1 mph - N/A   Mostly Cloudy
1:55 PM 41.0 °F 35.2 °F 30.2 °F 65% 30.29 in 10.0 mi ESE 9.2 mph - N/A   Overcast
2:15 PM 42.8 °F 38.0 °F 30.2 °F 61% 30.28 in 10.0 mi East 8.1 mph - N/A   Mostly Cloudy
2:55 PM 44.6 °F 39.7 °F 32.0 °F 61% 30.26 in 10.0 mi East 9.2 mph - N/A   Mostly Cloudy
3:15 PM 44.6 °F 38.4 °F 30.2 °F 57% 30.24 in 10.0 mi East 12.7 mph - N/A   Scattered Clouds
3:35 PM 46.4 °F 40.4 °F 30.2 °F 53% 30.23 in 10.0 mi ESE 13.8 mph - N/A   Scattered Clouds
3:55 PM 46.4 °F 40.4 °F 32.0 °F 57% 30.22 in 10.0 mi East 13.8 mph - N/A   Clear
4:15 PM 48.2 °F - 32.0 °F 54% 30.22 in 10.0 mi East 10.4 mph - N/A   Clear
4:35 PM 46.4 °F 41.1 °F 32.0 °F 57% 30.21 in 10.0 mi East 11.5 mph - N/A   Clear
4:55 PM 46.4 °F 41.5 °F 30.2 °F 53% 30.22 in 10.0 mi East 10.4 mph - N/A   Clear
5:15 PM 46.4 °F 41.9 °F 30.2 °F 53% 30.22 in 10.0 mi East 9.2 mph - N/A   Clear
5:35 PM 46.4 °F 42.4 °F 30.2 °F 53% 30.23 in 10.0 mi East 8.1 mph - N/A   Scattered Clouds
5:55 PM 46.4 °F 41.5 °F 30.2 °F 53% 30.23 in 10.0 mi East 10.4 mph - N/A   Mostly Cloudy
6:15 PM 44.6 °F 40.2 °F 30.2 °F 57% 30.24 in 10.0 mi ENE 8.1 mph - N/A   Overcast
6:35 PM 44.6 °F 40.7 °F 30.2 °F 57% 30.24 in 10.0 mi ENE 6.9 mph - N/A   Overcast
6:55 PM 42.8 °F 38.0 °F 30.2 °F 61% 30.23 in 10.0 mi ENE 8.1 mph - N/A   Overcast
7:15 PM 42.8 °F 37.5 °F 30.2 °F 61% 30.23 in 10.0 mi ENE 9.2 mph - N/A   Overcast
7:35 PM 42.8 °F 38.6 °F 32.0 °F 66% 30.24 in 10.0 mi NE 6.9 mph - N/A   Overcast
7:55 PM 42.8 °F 38.6 °F 32.0 °F 66% 30.24 in 10.0 mi ENE 6.9 mph - N/A   Overcast
8:15 PM 41.0 °F 36.4 °F 32.0 °F 70% 30.24 in 10.0 mi ENE 6.9 mph - N/A   Overcast
8:35 PM 41.0 °F 35.8 °F 32.0 °F 70% 30.24 in 10.0 mi East 8.1 mph - N/A   Overcast
8:55 PM 41.0 °F 36.4 °F 32.0 °F 70% 30.24 in 10.0 mi ENE 6.9 mph - N/A   Mostly Cloudy
9:15 PM 39.2 °F 34.2 °F 32.0 °F 75% 30.25 in 10.0 mi East 6.9 mph - N/A   Scattered Clouds
9:35 PM 39.2 °F 35.0 °F 32.0 °F 75% 30.25 in 10.0 mi ENE 5.8 mph - N/A   Clear
9:55 PM 37.4 °F 32.1 °F 32.0 °F 81% 30.25 in 10.0 mi ENE 6.9 mph - N/A   Clear
10:15 PM 37.4 °F 32.1 °F 32.0 °F 81% 30.26 in 10.0 mi ENE 6.9 mph - N/A   Mostly Cloudy
10:35 PM 39.2 °F 34.2 °F 32.0 °F 75% 30.26 in 10.0 mi East 6.9 mph - N/A   Overcast
10:55 PM 39.2 °F 35.0 °F 32.0 °F 75% 30.26 in 10.0 mi ENE 5.8 mph - N/A   Overcast
11:15 PM 39.2 °F 34.2 °F 32.0 °F 75% 30.25 in 10.0 mi East 6.9 mph - N/A   Overcast
11:35 PM 39.2 °F 34.2 °F 32.0 °F 75% 30.25 in 10.0 mi ENE 6.9 mph - N/A   Overcast
11:55 PM 41.0 °F 37.1 °F 32.0 °F 70% 30.25 in 10.0 mi ENE 5.8 mph - N/A   Overcast